createdAt,value
2023-03-29T00:00:08.180Z,4.75
2023-03-29T00:02:59.469Z,3.70
2023-03-29T00:05:47.530Z,4.82
2023-03-29T00:08:35.289Z,4.47
2023-03-29T00:11:23.611Z,4.35
2023-03-29T00:14:11.237Z,5.13
2023-03-29T00:16:58.532Z,4.45
2023-03-29T00:19:47.630Z,4.38
2023-03-29T00:22:35.975Z,5.07
2023-03-29T00:25:23.919Z,4.35
2023-03-29T00:28:14.893Z,3.60
2023-03-29T00:31:07.520Z,4.40
2023-03-29T00:33:54.991Z,5.18
2023-03-29T00:36:43.297Z,3.60
2023-03-29T00:39:32.529Z,5.00
2023-03-29T00:42:20.504Z,5.03
2023-03-29T00:45:20.089Z,5.20
2023-03-29T00:48:08.982Z,3.80
2023-03-29T00:51:00.461Z,6.72
2023-03-29T00:53:51.795Z,4.05
2023-03-29T00:56:41.535Z,4.22
2023-03-29T00:59:32.904Z,4.22
2023-03-29T01:02:26.199Z,4.47
2023-03-29T01:05:18.491Z,4.45
2023-03-29T01:08:11.188Z,5.53
2023-03-29T01:11:04.114Z,3.70
2023-03-29T01:13:58.988Z,4.63
2023-03-29T01:16:47.091Z,3.75
2023-03-29T01:19:48.995Z,5.32
2023-03-29T01:22:45.943Z,4.03
2023-03-29T01:25:40.030Z,5.75
2023-03-29T01:28:32.881Z,4.60
2023-03-29T01:31:26.075Z,4.88
2023-03-29T01:34:21.114Z,4.63
2023-03-29T01:37:15.745Z,5.82
2023-03-29T01:40:05.106Z,4.73
2023-03-29T01:43:01.857Z,4.13
2023-03-29T01:45:57.726Z,3.42
2023-03-29T01:48:50.848Z,4.80
2023-03-29T01:51:41.665Z,4.60
2023-03-29T01:54:34.609Z,3.22
2023-03-29T01:57:25.093Z,7.25
2023-03-29T02:00:16.325Z,4.47
2023-03-29T02:03:10.279Z,4.43
2023-03-29T02:05:59.673Z,5.45
2023-03-29T02:08:49.818Z,3.38
2023-03-29T02:11:38.009Z,4.63
2023-03-29T02:14:26.866Z,5.43
2023-03-29T02:17:18.339Z,4.88
2023-03-29T02:20:14.699Z,5.93
2023-03-29T02:23:09.023Z,5.40
2023-03-29T02:25:56.988Z,5.43
2023-03-29T02:28:45.910Z,4.88
2023-03-29T02:31:40.057Z,5.20
2023-03-29T02:34:31.417Z,4.35
2023-03-29T02:37:22.529Z,3.97
2023-03-29T02:40:13.047Z,6.03
2023-03-29T02:43:02.401Z,5.68
2023-03-29T02:45:51.483Z,5.20
2023-03-29T02:48:39.812Z,4.30
2023-03-29T02:51:30.928Z,3.90
2023-03-29T02:54:21.942Z,3.45
2023-03-29T02:57:10.371Z,3.30
2023-03-29T02:59:58.823Z,5.95
2023-03-29T03:02:46.642Z,4.43
2023-03-29T03:05:34.020Z,5.28
2023-03-29T03:08:21.280Z,4.75
2023-03-29T03:11:10.400Z,4.53
2023-03-29T03:13:57.303Z,5.07
2023-03-29T03:16:44.203Z,4.63
2023-03-29T03:19:31.102Z,4.25
2023-03-29T03:22:18.454Z,4.90
2023-03-29T03:25:05.879Z,5.93
2023-03-29T03:27:54.438Z,4.63
2023-03-29T03:30:44.135Z,5.35
2023-03-29T03:33:43.358Z,4.97
2023-03-29T03:36:42.825Z,5.00
2023-03-29T03:39:32.646Z,4.38
2023-03-29T03:42:21.774Z,4.82
2023-03-29T03:45:12.326Z,6.40
2023-03-29T03:48:05.571Z,6.53
2023-03-29T03:51:03.651Z,5.88
2023-03-29T03:53:54.008Z,5.03
2023-03-29T03:56:56.196Z,3.95
2023-03-29T03:59:53.332Z,6.45
2023-03-29T04:02:48.480Z,6.72
2023-03-29T04:05:40.684Z,5.00
2023-03-29T04:08:29.199Z,6.47
2023-03-29T04:11:38.465Z,6.30
2023-03-29T04:14:27.214Z,5.20
2023-03-29T04:17:24.037Z,4.53
2023-03-29T04:20:19.799Z,4.97
2023-03-29T04:23:07.075Z,4.97
2023-03-29T04:25:56.948Z,6.35
2023-03-29T04:29:08.186Z,6.07
2023-03-29T04:32:01.074Z,6.13
2023-03-29T04:35:19.094Z,5.20
2023-03-29T04:38:10.043Z,5.82
2023-03-29T04:40:58.216Z,6.28
2023-03-29T04:44:04.234Z,5.88
2023-03-29T04:46:52.398Z,6.85
2023-03-29T04:49:58.642Z,6.27
2023-03-29T04:53:07.542Z,5.93
2023-03-29T04:55:55.693Z,4.73
2023-03-29T04:59:02.793Z,5.72
2023-03-29T05:01:49.740Z,6.15
2023-03-29T05:04:36.905Z,5.82
2023-03-29T05:07:31.307Z,7.00
2023-03-29T05:10:19.643Z,5.45
2023-03-29T05:13:06.770Z,6.73
2023-03-29T05:15:54.618Z,5.72
2023-03-29T05:18:41.933Z,6.88
2023-03-29T05:21:30.793Z,5.43
2023-03-29T05:24:22.500Z,6.00
2023-03-29T05:27:11.876Z,6.95
2023-03-29T05:29:59.489Z,6.55
2023-03-29T05:33:10.758Z,6.93
2023-03-29T05:36:02.419Z,6.30
2023-03-29T05:38:50.268Z,5.20
2023-03-29T05:41:39.850Z,6.72
2023-03-29T05:44:47.250Z,6.63
2023-03-29T05:47:39.863Z,5.40
2023-03-29T05:50:28.035Z,6.25
2023-03-29T05:53:19.551Z,5.80
2023-03-29T05:56:08.997Z,4.28
2023-03-29T05:58:57.092Z,6.72
2023-03-29T06:01:47.330Z,6.25
2023-03-29T06:04:38.626Z,6.35
2023-03-29T06:07:45.600Z,6.28
2023-03-29T06:10:53.273Z,6.18
2023-03-29T06:14:06.395Z,6.70
2023-03-29T06:16:56.743Z,7.95
2023-03-29T06:19:44.610Z,7.63
2023-03-29T06:22:32.595Z,7.10
2023-03-29T06:25:19.994Z,6.68
2023-03-29T06:28:09.925Z,7.38
2023-03-29T06:31:03.353Z,6.70
2023-03-29T06:33:58.354Z,7.97
2023-03-29T06:36:57.619Z,5.68
2023-03-29T06:39:53.448Z,6.28
2023-03-29T06:42:58.031Z,8.63
2023-03-29T06:46:04.453Z,5.32
2023-03-29T06:49:06.043Z,4.82
2023-03-29T06:52:02.276Z,6.32
2023-03-29T06:54:49.495Z,6.82
2023-03-29T06:57:37.132Z,7.90
2023-03-29T07:00:28.974Z,6.68
2023-03-29T07:03:36.452Z,5.60
2023-03-29T07:06:26.444Z,7.70
2023-03-29T07:09:14.309Z,5.82
2023-03-29T07:12:20.853Z,6.80
2023-03-29T07:15:09.523Z,5.45
2023-03-29T07:18:19.979Z,6.43
2023-03-29T07:21:08.212Z,6.53
2023-03-29T07:23:58.316Z,6.55
2023-03-29T07:27:00.048Z,6.13
2023-03-29T07:29:51.515Z,5.82
2023-03-29T07:32:40.136Z,6.27
2023-03-29T07:35:38.437Z,6.47
2023-03-29T07:38:27.161Z,6.80
2023-03-29T07:41:30.697Z,6.80
2023-03-29T07:44:24.050Z,6.70
2023-03-29T07:47:12.707Z,6.40
2023-03-29T07:50:00.331Z,6.35
2023-03-29T07:52:48.302Z,6.90
2023-03-29T07:55:35.911Z,6.13
2023-03-29T07:58:46.587Z,7.95
2023-03-29T08:01:34.208Z,6.20
2023-03-29T08:04:38.871Z,6.05
2023-03-29T08:07:58.321Z,6.28
2023-03-29T08:11:10.172Z,6.50
2023-03-29T08:14:12.830Z,6.45
2023-03-29T08:17:24.140Z,6.88
2023-03-29T08:20:15.126Z,4.65
2023-03-29T08:23:05.057Z,6.33
2023-03-29T08:26:11.559Z,6.40
2023-03-29T08:28:59.330Z,7.28
2023-03-29T08:31:49.751Z,5.88
2023-03-29T08:34:38.671Z,5.80
2023-03-29T08:37:42.563Z,5.45
2023-03-29T08:40:32.148Z,6.57
2023-03-29T08:43:47.328Z,5.93
2023-03-29T08:47:05.488Z,6.23
2023-03-29T08:49:59.359Z,5.85
2023-03-29T08:53:03.359Z,6.50
2023-03-29T08:56:13.529Z,7.40
2023-03-29T08:59:20.726Z,5.28
2023-03-29T09:02:17.881Z,6.60
2023-03-29T09:05:20.499Z,7.80
2023-03-29T09:08:25.492Z,5.07
2023-03-29T09:11:31.886Z,6.32
2023-03-29T09:14:38.317Z,7.40
2023-03-29T09:17:42.610Z,6.40
2023-03-29T09:20:43.390Z,7.75
2023-03-29T09:23:55.730Z,5.68
2023-03-29T09:27:10.149Z,6.35
2023-03-29T09:30:13.718Z,5.88
2023-03-29T09:33:16.818Z,6.97
2023-03-29T09:36:20.167Z,6.53
2023-03-29T09:39:14.561Z,6.60
2023-03-29T09:42:05.602Z,6.18
2023-03-29T09:44:57.237Z,7.00
2023-03-29T09:47:57.091Z,7.40
2023-03-29T09:50:51.300Z,5.50
2023-03-29T09:53:39.349Z,6.53
2023-03-29T09:56:45.617Z,6.55
2023-03-29T09:59:36.949Z,5.70
2023-03-29T10:02:24.409Z,7.07
2023-03-29T10:05:18.020Z,7.38
2023-03-29T10:08:20.618Z,5.93
2023-03-29T10:11:14.269Z,5.97
2023-03-29T10:14:04.471Z,6.37
2023-03-29T10:16:57.597Z,6.03
2023-03-29T10:19:50.667Z,5.53
2023-03-29T10:22:40.870Z,5.72
2023-03-29T10:25:32.960Z,6.10
2023-03-29T10:28:23.034Z,6.18
2023-03-29T10:31:19.576Z,6.30
2023-03-29T10:34:09.038Z,5.23
2023-03-29T10:37:00.135Z,5.20
2023-03-29T10:39:49.300Z,6.00
2023-03-29T10:42:49.934Z,5.07
2023-03-29T10:45:41.046Z,6.88
2023-03-29T10:48:31.952Z,5.13
2023-03-29T10:51:20.591Z,7.28
2023-03-29T10:54:14.327Z,5.38
2023-03-29T10:57:08.212Z,4.80
2023-03-29T11:00:02.527Z,4.75
2023-03-29T11:03:21.773Z,6.57
2023-03-29T11:06:18.564Z,7.97
2023-03-29T11:09:17.998Z,4.35
2023-03-29T11:12:16.119Z,4.00
2023-03-29T11:15:21.548Z,5.07
2023-03-29T11:18:27.775Z,5.80
2023-03-29T11:21:24.771Z,3.70
2023-03-29T11:24:34.049Z,5.43
2023-03-29T11:27:31.011Z,3.28
2023-03-29T11:30:25.192Z,4.07
2023-03-29T11:33:29.717Z,3.47
2023-03-29T11:36:19.905Z,4.05
2023-03-29T11:39:21.084Z,2.97
2023-03-29T11:42:13.144Z,3.80
2023-03-29T11:45:04.932Z,4.30
2023-03-29T11:47:54.976Z,2.97
2023-03-29T11:50:48.988Z,3.23
2023-03-29T11:53:45.573Z,3.80
2023-03-29T11:56:41.028Z,2.45
2023-03-29T11:59:35.949Z,3.70
2023-03-29T12:02:29.769Z,2.78
2023-03-29T12:05:23.370Z,3.03
2023-03-29T12:08:14.933Z,2.93
2023-03-29T12:11:08.536Z,3.30
2023-03-29T12:14:00.519Z,2.85
2023-03-29T12:16:52.462Z,3.30
2023-03-29T12:19:46.549Z,3.33
2023-03-29T12:22:38.496Z,5.53
2023-03-29T12:25:31.732Z,3.63
2023-03-29T12:28:52.441Z,4.95
2023-03-29T12:31:49.197Z,4.93
2023-03-29T12:34:56.096Z,4.00
2023-03-29T12:38:10.632Z,4.75
2023-03-29T12:41:19.251Z,5.07
2023-03-29T12:44:25.737Z,4.95
2023-03-29T12:47:20.468Z,6.28
2023-03-29T12:50:08.764Z,4.43
2023-03-29T12:53:06.555Z,4.45
2023-03-29T12:56:10.345Z,3.72
2023-03-29T12:59:07.920Z,4.93
2023-03-29T13:02:01.208Z,4.67
2023-03-29T13:04:53.874Z,5.17
2023-03-29T13:07:52.010Z,3.72
2023-03-29T13:10:43.830Z,3.15
2023-03-29T13:13:35.043Z,5.05
2023-03-29T13:16:30.797Z,5.10
2023-03-29T13:19:29.977Z,3.35
2023-03-29T13:22:27.345Z,4.50
2023-03-29T13:25:33.933Z,4.75
2023-03-29T13:28:27.587Z,4.93
2023-03-29T13:31:27.782Z,3.25
2023-03-29T13:34:28.038Z,3.78
2023-03-29T13:37:29.427Z,5.25
2023-03-29T13:40:44.079Z,3.95
2023-03-29T13:43:36.093Z,3.65
2023-03-29T13:46:37.602Z,4.53
2023-03-29T13:49:28.742Z,4.32
2023-03-29T13:52:22.747Z,6.00
2023-03-29T13:55:19.472Z,4.03
2023-03-29T13:58:13.484Z,3.83
2023-03-29T14:01:10.067Z,4.00
2023-03-29T14:04:00.110Z,4.18
2023-03-29T14:06:53.260Z,4.22
2023-03-29T14:09:45.192Z,3.38
2023-03-29T14:12:41.205Z,4.35
2023-03-29T14:15:43.915Z,3.47
2023-03-29T14:18:35.989Z,4.10
2023-03-29T14:21:23.678Z,4.38
2023-03-29T14:24:14.272Z,3.40
2023-03-29T14:27:04.170Z,3.90
2023-03-29T14:29:53.273Z,4.38
2023-03-29T14:32:41.506Z,4.23
2023-03-29T14:35:33.460Z,4.75
2023-03-29T14:38:23.570Z,4.25
2023-03-29T14:41:11.534Z,6.80
2023-03-29T14:44:00.211Z,4.97
2023-03-29T14:46:48.124Z,3.80
2023-03-29T14:49:36.113Z,4.70
2023-03-29T14:52:26.765Z,3.88
2023-03-29T14:55:18.390Z,3.57
2023-03-29T14:58:18.416Z,2.25
2023-03-29T15:01:07.952Z,3.60
2023-03-29T15:03:57.527Z,3.15
2023-03-29T15:06:50.095Z,2.75
2023-03-29T15:09:40.672Z,4.05
2023-03-29T15:12:31.531Z,4.32
2023-03-29T15:15:19.361Z,2.30
2023-03-29T15:18:09.188Z,4.28
2023-03-29T15:20:56.975Z,3.13
2023-03-29T15:23:51.955Z,3.45
2023-03-29T15:26:40.873Z,3.95
2023-03-29T15:29:36.280Z,3.15
2023-03-29T15:32:25.357Z,4.10
2023-03-29T15:35:24.937Z,4.43
2023-03-29T15:38:13.466Z,4.10
2023-03-29T15:41:02.728Z,3.55
2023-03-29T15:43:51.312Z,3.70
2023-03-29T15:46:39.657Z,3.85
2023-03-29T15:49:27.627Z,4.40
2023-03-29T15:52:16.795Z,4.65
2023-03-29T15:55:04.910Z,5.27
2023-03-29T15:57:55.448Z,6.80
2023-03-29T16:00:47.865Z,4.97
2023-03-29T16:03:36.157Z,6.67
2023-03-29T16:06:24.053Z,4.43
2023-03-29T16:09:12.983Z,6.00
2023-03-29T16:12:01.354Z,5.45
2023-03-29T16:14:48.627Z,4.55
2023-03-29T16:17:37.956Z,4.88
2023-03-29T16:20:25.563Z,5.63
2023-03-29T16:23:13.501Z,7.32
2023-03-29T16:26:01.007Z,6.13
2023-03-29T16:28:48.769Z,6.47
2023-03-29T16:31:36.544Z,5.57
2023-03-29T16:34:25.202Z,6.63
2023-03-29T16:37:13.104Z,5.53
2023-03-29T16:40:00.877Z,8.10
2023-03-29T16:42:49.172Z,6.72
2023-03-29T16:45:37.279Z,5.85
2023-03-29T16:48:24.775Z,6.85
2023-03-29T16:51:13.874Z,5.47
2023-03-29T16:54:02.260Z,5.63
2023-03-29T16:56:49.341Z,7.93
2023-03-29T16:59:36.309Z,5.93
2023-03-29T17:02:23.897Z,7.63
2023-03-29T17:05:12.764Z,6.93
2023-03-29T17:08:02.263Z,7.78
2023-03-29T17:10:54.102Z,8.80
2023-03-29T17:13:41.914Z,7.60
2023-03-29T17:16:29.479Z,8.48
2023-03-29T17:19:16.979Z,9.15
2023-03-29T17:22:04.913Z,8.93
2023-03-29T17:24:54.306Z,9.88
2023-03-29T17:27:42.535Z,8.10
2023-03-29T17:30:30.698Z,9.38
2023-03-29T17:33:22.339Z,5.93
2023-03-29T17:36:11.603Z,8.63
2023-03-29T17:41:49.953Z,9.80
2023-03-29T17:44:37.652Z,9.00
2023-03-29T17:47:25.559Z,7.90
2023-03-29T17:50:14.079Z,7.63
2023-03-29T17:53:02.037Z,8.80
2023-03-29T17:55:49.397Z,9.17
2023-03-29T17:58:37.850Z,7.32
2023-03-29T18:01:25.520Z,7.60
2023-03-29T18:04:13.828Z,9.02
2023-03-29T18:07:01.465Z,7.53
2023-03-29T18:09:48.815Z,9.73
2023-03-29T18:12:37.348Z,8.15
2023-03-29T18:15:26.323Z,12.82
2023-03-29T18:18:14.137Z,12.25
2023-03-29T18:21:02.379Z,12.15
2023-03-29T18:23:53.319Z,7.38
2023-03-29T18:26:42.372Z,9.10
2023-03-29T18:29:30.206Z,7.32
2023-03-29T18:32:19.518Z,8.52
2023-03-29T18:35:08.752Z,9.30
2023-03-29T18:37:56.471Z,8.23
2023-03-29T18:40:44.135Z,6.85
2023-03-29T18:43:33.574Z,8.82
2023-03-29T18:46:20.999Z,6.57
2023-03-29T18:49:10.446Z,7.63
2023-03-29T18:51:58.020Z,10.27
2023-03-29T18:54:45.226Z,8.50
2023-03-29T18:57:34.550Z,8.82
2023-03-29T19:00:24.796Z,8.70
2023-03-29T19:03:12.397Z,8.10
2023-03-29T19:06:02.053Z,8.43
2023-03-29T19:08:49.838Z,12.07
2023-03-29T19:11:37.458Z,7.97
2023-03-29T19:14:25.420Z,8.25
2023-03-29T19:17:13.262Z,8.00
2023-03-29T19:20:00.985Z,9.32
2023-03-29T19:22:49.427Z,7.45
2023-03-29T19:25:37.982Z,7.13
2023-03-29T19:28:26.035Z,7.15
2023-03-29T19:31:13.292Z,9.07
2023-03-29T19:34:01.081Z,8.27
2023-03-29T19:36:48.946Z,8.40
2023-03-29T19:39:40.038Z,9.32
2023-03-29T19:42:28.169Z,7.95
2023-03-29T19:45:16.127Z,9.43
2023-03-29T19:48:04.757Z,9.43
2023-03-29T19:50:52.699Z,9.05
2023-03-29T19:53:41.853Z,9.37
2023-03-29T19:56:33.272Z,8.75
2023-03-29T19:59:21.134Z,11.10
2023-03-29T20:02:11.018Z,8.57
2023-03-29T20:04:59.412Z,7.13
2023-03-29T20:07:46.882Z,8.38
2023-03-29T20:10:34.731Z,9.48
2023-03-29T20:13:37.471Z,7.55
2023-03-29T20:16:27.164Z,9.48
2023-03-29T20:19:17.802Z,8.38
2023-03-29T20:22:06.133Z,7.55
2023-03-29T20:24:53.765Z,8.07
2023-03-29T20:27:42.767Z,8.05
2023-03-29T20:30:32.423Z,7.20
2023-03-29T20:33:20.654Z,7.53
2023-03-29T20:36:10.127Z,8.27
2023-03-29T20:38:59.425Z,7.68
2023-03-29T20:41:47.933Z,7.93
2023-03-29T20:44:35.705Z,7.53
2023-03-29T20:47:27.573Z,7.90
2023-03-29T20:50:18.643Z,5.50
2023-03-29T20:53:06.895Z,7.57
2023-03-29T20:55:54.717Z,8.03
2023-03-29T20:58:43.903Z,6.82
2023-03-29T21:01:31.663Z,6.60
2023-03-29T21:04:20.992Z,6.47
2023-03-29T21:07:08.537Z,9.18
2023-03-29T21:09:56.245Z,7.50
2023-03-29T21:12:44.087Z,6.88
2023-03-29T21:15:32.059Z,6.90
2023-03-29T21:18:20.517Z,5.00
2023-03-29T21:21:10.051Z,6.20
2023-03-29T21:23:57.460Z,6.57
2023-03-29T21:26:45.311Z,5.30
2023-03-29T21:29:32.327Z,6.05
2023-03-29T21:32:20.023Z,7.43
2023-03-29T21:35:08.263Z,7.18
2023-03-29T21:37:56.665Z,6.93
2023-03-29T21:40:44.588Z,4.55
2023-03-29T21:43:32.324Z,5.30
2023-03-29T21:46:20.068Z,4.55
2023-03-29T21:49:07.791Z,5.20
2023-03-29T21:51:56.569Z,5.60
2023-03-29T21:54:45.920Z,7.85
2023-03-29T21:57:33.473Z,4.93
2023-03-29T22:00:22.420Z,5.43
2023-03-29T22:03:10.279Z,7.03
2023-03-29T22:05:59.978Z,5.57
2023-03-29T22:08:49.865Z,4.65
2023-03-29T22:11:39.600Z,5.63
2023-03-29T22:14:28.764Z,5.38
2023-03-29T22:17:17.312Z,6.30
2023-03-29T22:20:24.874Z,5.55
2023-03-29T22:23:13.380Z,5.80
2023-03-29T22:26:05.093Z,4.13
2023-03-29T22:28:54.792Z,4.60
2023-03-29T22:31:42.642Z,6.50
2023-03-29T22:34:30.114Z,4.75
2023-03-29T22:37:18.073Z,6.57
2023-03-29T22:40:06.211Z,4.97
2023-03-29T22:42:53.543Z,5.25
2023-03-29T22:45:42.623Z,5.60
2023-03-29T22:48:30.343Z,6.13
2023-03-29T22:51:18.269Z,7.85
2023-03-29T22:54:06.143Z,8.68
2023-03-29T22:56:53.787Z,5.30
2023-03-29T22:59:41.481Z,6.97
2023-03-29T23:02:30.761Z,5.22
2023-03-29T23:05:18.692Z,5.90
2023-03-29T23:08:07.342Z,6.15
2023-03-29T23:10:55.029Z,7.78
2023-03-29T23:13:43.109Z,5.88
2023-03-29T23:16:31.901Z,6.22
2023-03-29T23:19:20.558Z,8.37
2023-03-29T23:22:08.668Z,5.88
2023-03-29T23:24:57.535Z,7.03
2023-03-29T23:27:45.052Z,5.88
2023-03-29T23:30:35.906Z,5.73
2023-03-29T23:33:25.892Z,6.88
2023-03-29T23:36:16.564Z,7.70
2023-03-29T23:39:07.406Z,7.40
2023-03-29T23:41:54.691Z,5.90
2023-03-29T23:44:41.708Z,7.10
2023-03-29T23:47:29.987Z,7.07
2023-03-29T23:50:18.301Z,5.93
2023-03-29T23:53:07.976Z,5.40
2023-03-29T23:55:58.557Z,4.53
2023-03-29T23:58:46.210Z,7.43
